Terminal Aerodrome Forecast
Issued by NWS Des Moines, IA

Home | Current Version | Previous Version | Text Only | Print | Product List | Glossary On
Versions: 1 2 3 4 5 6 7 8 9 10 11 12 13 14 15 16 17 18 19 20 21 22 23 24 25 26 27 28 29 30 31 32 33 34
000
FTUS43 KDMX 250520
TAFALO
TAF
KALO 250520Z 2506/2606 10014KT P6SM SCT025 BKN035
     FM250900 09015G21KT P6SM SCT008 OVC018
     FM251200 09017G24KT 5SM BR VCSH SCT007 OVC012
     FM251800 07016G24KT P6SM OVC016
     FM260300 06009KT P6SM SCT030=

USA.gov is the U.S. government's official web portal to all federal, state and local government web resources and services.